sensor_id;sensor_type;location;lat;lon;timestamp;pressure;altitude;pressure_sealevel;temperature;humidity
38812;BME280;24553;51.640;-0.752;2023-07-13T00:00:15;100708.28;;;15.22;100.00
38812;BME280;24553;51.640;-0.752;2023-07-13T00:02:42;100718.97;;;15.22;100.00
38812;BME280;24553;51.640;-0.752;2023-07-13T00:05:07;100719.16;;;15.20;100.00
38812;BME280;24553;51.640;-0.752;2023-07-13T00:07:34;100722.69;;;15.21;100.00
38812;BME280;24553;51.640;-0.752;2023-07-13T00:09:59;100717.34;;;15.21;100.00
38812;BME280;24553;51.640;-0.752;2023-07-13T00:12:30;100724.75;;;15.19;100.00
38812;BME280;24553;51.640;-0.752;2023-07-13T00:14:57;100720.59;;;15.23;100.00
38812;BME280;24553;51.640;-0.752;2023-07-13T00:17:23;100726.09;;;15.28;100.00
38812;BME280;24553;51.640;-0.752;2023-07-13T00:19:49;100718.94;;;15.29;100.00
38812;BME280;24553;51.640;-0.752;2023-07-13T00:22:14;100717.34;;;15.21;100.00
38812;BME280;24553;51.640;-0.752;2023-07-13T00:24:39;100723.97;;;15.12;100.00
38812;BME280;24553;51.640;-0.752;2023-07-13T00:27:07;100718.69;;;15.05;100.00
38812;BME280;24553;51.640;-0.752;2023-07-13T00:29:33;100719.25;;;15.07;100.00
38812;BME280;24553;51.640;-0.752;2023-07-13T00:31:59;100719.50;;;15.05;100.00
38812;BME280;24553;51.640;-0.752;2023-07-13T00:34:24;100724.41;;;15.09;100.00
38812;BME280;24553;51.640;-0.752;2023-07-13T00:36:49;100722.34;;;15.11;100.00
38812;BME280;24553;51.640;-0.752;2023-07-13T00:39:15;100718.59;;;15.18;100.00
38812;BME280;24553;51.640;-0.752;2023-07-13T00:41:40;100724.31;;;15.22;100.00
38812;BME280;24553;51.640;-0.752;2023-07-13T00:44:08;100714.88;;;15.19;100.00
38812;BME280;24553;51.640;-0.752;2023-07-13T00:46:34;100719.22;;;15.14;100.00
38812;BME280;24553;51.640;-0.752;2023-07-13T00:49:02;100729.75;;;15.09;100.00
38812;BME280;24553;51.640;-0.752;2023-07-13T00:51:51;100715.78;;;15.07;100.00
38812;BME280;24553;51.640;-0.752;2023-07-13T00:54:22;100720.50;;;15.04;100.00
38812;BME280;24553;51.640;-0.752;2023-07-13T00:56:51;100721.56;;;15.03;100.00
38812;BME280;24553;51.640;-0.752;2023-07-13T00:59:18;100724.41;;;15.09;100.00
38812;BME280;24553;51.640;-0.752;2023-07-13T01:01:45;100719.84;;;15.16;100.00
38812;BME280;24553;51.640;-0.752;2023-07-13T01:04:10;100718.19;;;15.15;100.00
38812;BME280;24553;51.640;-0.752;2023-07-13T01:06:37;100716.13;;;15.17;100.00
38812;BME280;24553;51.640;-0.752;2023-07-13T01:09:04;100722.72;;;15.14;100.00
38812;BME280;24553;51.640;-0.752;2023-07-13T01:11:30;100732.16;;;15.17;100.00
38812;BME280;24553;51.640;-0.752;2023-07-13T01:13:56;100726.97;;;15.22;100.00
38812;BME280;24553;51.640;-0.752;2023-07-13T01:16:27;100723.06;;;15.24;100.00
38812;BME280;24553;51.640;-0.752;2023-07-13T01:18:54;100721.19;;;15.25;100.00
38812;BME280;24553;51.640;-0.752;2023-07-13T01:21:23;100727.16;;;15.27;100.00
38812;BME280;24553;51.640;-0.752;2023-07-13T01:23:49;100725.53;;;15.26;100.00
38812;BME280;24553;51.640;-0.752;2023-07-13T01:26:14;100723.06;;;15.24;100.00
38812;BME280;24553;51.640;-0.752;2023-07-13T01:28:39;100723.09;;;15.18;100.00
38812;BME280;24553;51.640;-0.752;2023-07-13T01:31:05;100721.91;;;15.14;100.00
38812;BME280;24553;51.640;-0.752;2023-07-13T01:33:30;100730.09;;;15.19;100.00
38812;BME280;24553;51.640;-0.752;2023-07-13T01:35:56;100729.03;;;15.20;100.00
38812;BME280;24553;51.640;-0.752;2023-07-13T01:38:25;100727.41;;;15.19;100.00
38812;BME280;24553;51.640;-0.752;2023-07-13T01:40:52;100711.13;;;15.27;100.00
38812;BME280;24553;51.640;-0.752;2023-07-13T01:43:18;100717.28;;;15.27;100.00
38812;BME280;24553;51.640;-0.752;2023-07-13T01:45:43;100714.84;;;15.26;100.00
38812;BME280;24553;51.640;-0.752;2023-07-13T01:48:10;100712.75;;;15.28;100.00
38812;BME280;24553;51.640;-0.752;2023-07-13T01:50:35;100717.28;;;15.27;100.00
38812;BME280;24553;51.640;-0.752;2023-07-13T01:53:01;100707.66;;;15.26;100.00
38812;BME280;24553;51.640;-0.752;2023-07-13T01:55:27;100706.22;;;15.24;100.00
38812;BME280;24553;51.640;-0.752;2023-07-13T01:57:53;100720.00;;;15.21;100.00
38812;BME280;24553;51.640;-0.752;2023-07-13T02:00:18;100715.47;;;15.21;100.00
38812;BME280;24553;51.640;-0.752;2023-07-13T02:02:44;100717.75;;;15.18;100.00
38812;BME280;24553;51.640;-0.752;2023-07-13T02:05:09;100723.69;;;15.20;100.00
38812;BME280;24553;51.640;-0.752;2023-07-13T02:07:34;100722.06;;;15.19;100.00
38812;BME280;24553;51.640;-0.752;2023-07-13T02:10:00;100716.13;;;15.17;100.00
38812;BME280;24553;51.640;-0.752;2023-07-13T02:12:25;100720.03;;;15.14;100.00
38812;BME280;24553;51.640;-0.752;2023-07-13T02:14:50;100722.34;;;15.11;100.00
38812;BME280;24553;51.640;-0.752;2023-07-13T02:17:16;100712.47;;;15.11;100.00
38812;BME280;24553;51.640;-0.752;2023-07-13T02:19:41;100718.88;;;15.03;100.00
38812;BME280;24553;51.640;-0.752;2023-07-13T02:22:06;100711.13;;;14.95;100.00
38812;BME280;24553;51.640;-0.752;2023-07-13T02:24:32;100711.38;;;14.87;100.00
38812;BME280;24553;51.640;-0.752;2023-07-13T02:26:57;100716.31;;;14.83;100.00
38812;BME280;24553;51.640;-0.752;2023-07-13T02:29:23;100717.00;;;14.72;100.00
38812;BME280;24553;51.640;-0.752;2023-07-13T02:31:48;100718.00;;;14.71;100.00
38812;BME280;24553;51.640;-0.752;2023-07-13T02:34:13;100713.72;;;14.70;100.00
38812;BME280;24553;51.640;-0.752;2023-07-13T02:36:39;100705.13;;;14.61;100.00
38812;BME280;24553;51.640;-0.752;2023-07-13T02:39:05;100717.66;;;14.48;100.00
38812;BME280;24553;51.640;-0.752;2023-07-13T02:41:31;100707.00;;;14.48;100.00
38812;BME280;24553;51.640;-0.752;2023-07-13T02:43:59;100720.97;;;14.43;100.00
38812;BME280;24553;51.640;-0.752;2023-07-13T02:46:36;100718.94;;;14.32;100.00
38812;BME280;24553;51.640;-0.752;2023-07-13T02:49:03;100723.66;;;14.30;100.00
38812;BME280;24553;51.640;-0.752;2023-07-13T02:51:29;100718.56;;;14.22;100.00
38812;BME280;24553;51.640;-0.752;2023-07-13T02:53:54;100715.09;;;14.21;100.00
38812;BME280;24553;51.640;-0.752;2023-07-13T02:56:24;100723.09;;;14.21;100.00
38812;BME280;24553;51.640;-0.752;2023-07-13T02:58:50;100729.84;;;14.24;100.00
38812;BME280;24553;51.640;-0.752;2023-07-13T03:01:16;100729.03;;;14.16;100.00
38812;BME280;24553;51.640;-0.752;2023-07-13T03:03:46;100729.47;;;14.13;100.00
38812;BME280;24553;51.640;-0.752;2023-07-13T03:06:12;100732.13;;;14.07;100.00
38812;BME280;24553;51.640;-0.752;2023-07-13T03:08:38;100732.16;;;14.00;100.00
38812;BME280;24553;51.640;-0.752;2023-07-13T03:11:06;100737.72;;;13.92;100.00
38812;BME280;24553;51.640;-0.752;2023-07-13T03:13:32;100743.22;;;13.90;100.00
38812;BME280;24553;51.640;-0.752;2023-07-13T03:15:58;100742.63;;;13.82;100.00
38812;BME280;24553;51.640;-0.752;2023-07-13T03:18:25;100742.63;;;13.82;100.00
38812;BME280;24553;51.640;-0.752;2023-07-13T03:20:51;100738.31;;;13.81;100.00
38812;BME280;24553;51.640;-0.752;2023-07-13T03:23:17;100743.44;;;13.75;100.00
38812;BME280;24553;51.640;-0.752;2023-07-13T03:25:42;100737.09;;;13.70;100.00
38812;BME280;24553;51.640;-0.752;2023-07-13T03:28:09;100745.69;;;13.65;100.00
38812;BME280;24553;51.640;-0.752;2023-07-13T03:30:34;100748.38;;;13.72;100.00
38812;BME280;24553;51.640;-0.752;2023-07-13T03:32:59;100751.66;;;13.74;100.00
38812;BME280;24553;51.640;-0.752;2023-07-13T03:35:25;100752.06;;;13.71;100.00
38812;BME280;24553;51.640;-0.752;2023-07-13T03:37:50;100745.09;;;13.63;100.00
38812;BME280;24553;51.640;-0.752;2023-07-13T03:40:16;100749.19;;;13.59;100.00
38812;BME280;24553;51.640;-0.752;2023-07-13T03:42:42;100747.72;;;13.50;100.00
38812;BME280;24553;51.640;-0.752;2023-07-13T03:45:08;100754.69;;;13.38;100.00
38812;BME280;24553;51.640;-0.752;2023-07-13T03:47:33;100756.69;;;13.22;100.00
38812;BME280;24553;51.640;-0.752;2023-07-13T03:49:58;100764.25;;;13.19;100.00
38812;BME280;24553;51.640;-0.752;2023-07-13T03:52:24;100764.25;;;13.19;100.00
38812;BME280;24553;51.640;-0.752;2023-07-13T03:54:49;100771.63;;;13.17;100.00
38812;BME280;24553;51.640;-0.752;2023-07-13T03:57:14;100777.78;;;13.17;100.00
38812;BME280;24553;51.640;-0.752;2023-07-13T03:59:39;100778.41;;;13.19;100.00
38812;BME280;24553;51.640;-0.752;2023-07-13T04:02:05;100785.41;;;13.27;100.00
38812;BME280;24553;51.640;-0.752;2023-07-13T04:04:30;100785.84;;;13.44;100.00
38812;BME280;24553;51.640;-0.752;2023-07-13T04:06:57;100779.69;;;13.50;100.00
38812;BME280;24553;51.640;-0.752;2023-07-13T04:09:24;100784.00;;;13.51;100.00
38812;BME280;24553;51.640;-0.752;2023-07-13T04:11:50;100772.13;;;13.47;100.00
38812;BME280;24553;51.640;-0.752;2023-07-13T04:14:15;100778.25;;;13.47;100.00
38812;BME280;24553;51.640;-0.752;2023-07-13T04:16:41;100779.69;;;13.50;100.00
38812;BME280;24553;51.640;-0.752;2023-07-13T04:19:07;100785.25;;;13.48;100.00
38812;BME280;24553;51.640;-0.752;2023-07-13T04:21:33;100777.44;;;13.47;100.00
38812;BME280;24553;51.640;-0.752;2023-07-13T04:23:58;100785.44;;;13.47;100.00
38812;BME280;24553;51.640;-0.752;2023-07-13T04:26:24;100788.72;;;13.49;100.00
38812;BME280;24553;51.640;-0.752;2023-07-13T04:28:50;100792.81;;;13.51;100.00
38812;BME280;24553;51.640;-0.752;2023-07-13T04:31:16;100794.03;;;13.49;100.00
38812;BME280;24553;51.640;-0.752;2023-07-13T04:33:41;100795.06;;;13.41;100.00
38812;BME280;24553;51.640;-0.752;2023-07-13T04:36:08;100786.84;;;13.36;100.00
38812;BME280;24553;51.640;-0.752;2023-07-13T04:38:35;100795.25;;;13.33;100.00
38812;BME280;24553;51.640;-0.752;2023-07-13T04:41:03;100794.22;;;13.34;100.00
38812;BME280;24553;51.640;-0.752;2023-07-13T04:43:29;100790.31;;;13.37;100.00
38812;BME280;24553;51.640;-0.752;2023-07-13T04:45:55;100786.25;;;13.41;100.00
38812;BME280;24553;51.640;-0.752;2023-07-13T04:48:22;100790.13;;;13.38;100.00
38812;BME280;24553;51.640;-0.752;2023-07-13T04:50:47;100795.06;;;13.35;100.00
38812;BME280;24553;51.640;-0.752;2023-07-13T04:53:13;100790.97;;;13.32;100.00
38812;BME280;24553;51.640;-0.752;2023-07-13T04:55:39;100798.31;;;13.30;100.00
38812;BME280;24553;51.640;-0.752;2023-07-13T04:58:05;100802.34;;;13.26;100.00
38812;BME280;24553;51.640;-0.752;2023-07-13T05:00:31;100807.06;;;13.24;100.00
38812;BME280;24553;51.640;-0.752;2023-07-13T05:02:57;100812.03;;;13.27;100.00
38812;BME280;24553;51.640;-0.752;2023-07-13T05:05:24;100812.84;;;13.27;100.00
38812;BME280;24553;51.640;-0.752;2023-07-13T05:07:50;100802.19;;;13.34;100.00
38812;BME280;24553;51.640;-0.752;2023-07-13T05:10:15;100814.72;;;13.34;100.00
38812;BME280;24553;51.640;-0.752;2023-07-13T05:12:41;100816.16;;;13.43;100.00
38812;BME280;24553;51.640;-0.752;2023-07-13T05:15:07;100815.34;;;13.49;100.00
38812;BME280;24553;51.640;-0.752;2023-07-13T05:17:33;100818.63;;;13.58;100.00
38812;BME280;24553;51.640;-0.752;2023-07-13T05:19:59;100823.38;;;13.62;100.00
38812;BME280;24553;51.640;-0.752;2023-07-13T05:22:24;100826.25;;;13.67;100.00
38812;BME280;24553;51.640;-0.752;2023-07-13T05:24:49;100832.41;;;13.74;100.00
38812;BME280;24553;51.640;-0.752;2023-07-13T05:27:15;100824.84;;;13.85;100.00
38812;BME280;24553;51.640;-0.752;2023-07-13T05:29:40;100837.97;;;14.00;100.00
38812;BME280;24553;51.640;-0.752;2023-07-13T05:32:06;100836.53;;;14.10;100.00
38812;BME280;24553;51.640;-0.752;2023-07-13T05:34:31;100828.94;;;14.14;100.00
38812;BME280;24553;51.640;-0.752;2023-07-13T05:36:57;100828.94;;;14.21;100.00
38812;BME280;24553;51.640;-0.752;2023-07-13T05:39:22;100835.91;;;14.28;100.00
38812;BME280;24553;51.640;-0.752;2023-07-13T05:41:48;100835.88;;;14.35;100.00
38812;BME280;24553;51.640;-0.752;2023-07-13T05:44:13;100830.78;;;14.53;100.00
38812;BME280;24553;51.640;-0.752;2023-07-13T05:46:39;100833.56;;;14.78;100.00
38812;BME280;24553;51.640;-0.752;2023-07-13T05:49:04;100831.84;;;15.04;100.00
38812;BME280;24553;51.640;-0.752;2023-07-13T05:51:29;100834.00;;;15.27;100.00
38812;BME280;24553;51.640;-0.752;2023-07-13T05:53:55;100827.78;;;15.33;100.00
38812;BME280;24553;51.640;-0.752;2023-07-13T05:56:21;100829.56;;;15.53;100.00
38812;BME280;24553;51.640;-0.752;2023-07-13T05:58:48;100828.44;;;15.67;100.00
38812;BME280;24553;51.640;-0.752;2023-07-13T06:01:14;100825.69;;;15.80;100.00
38812;BME280;24553;51.640;-0.752;2023-07-13T06:03:40;100826.44;;;15.87;100.00
38812;BME280;24553;51.640;-0.752;2023-07-13T06:06:08;100826.41;;;15.94;100.00
38812;BME280;24553;51.640;-0.752;2023-07-13T06:08:34;100825.53;;;16.00;100.00
38812;BME280;24553;51.640;-0.752;2023-07-13T06:13:29;100821.44;;;16.23;100.00
38812;BME280;24553;51.640;-0.752;2023-07-13T06:15:54;100827.47;;;16.36;100.00
38812;BME280;24553;51.640;-0.752;2023-07-13T06:18:20;100827.47;;;16.36;100.00
38812;BME280;24553;51.640;-0.752;2023-07-13T06:20:45;100832.00;;;16.36;100.00
38812;BME280;24553;51.640;-0.752;2023-07-13T06:23:10;100839.22;;;16.35;100.00
38812;BME280;24553;51.640;-0.752;2023-07-13T06:25:36;100833.13;;;16.47;100.00
38812;BME280;24553;51.640;-0.752;2023-07-13T06:28:01;100832.56;;;16.63;100.00
38812;BME280;24553;51.640;-0.752;2023-07-13T06:30:27;100821.09;;;16.74;100.00
38812;BME280;24553;51.640;-0.752;2023-07-13T06:32:52;100827.84;;;16.84;100.00
38812;BME280;24553;51.640;-0.752;2023-07-13T06:35:18;100825.00;;;16.97;100.00
38812;BME280;24553;51.640;-0.752;2023-07-13T06:37:44;100831.81;;;17.11;100.00
38812;BME280;24553;51.640;-0.752;2023-07-13T06:40:09;100824.53;;;17.18;100.00
38812;BME280;24553;51.640;-0.752;2023-07-13T06:42:35;100823.25;;;17.21;100.00
38812;BME280;24553;51.640;-0.752;2023-07-13T06:45:00;100829.41;;;17.21;100.00
38812;BME280;24553;51.640;-0.752;2023-07-13T06:47:26;100830.81;;;17.24;100.00
38812;BME280;24553;51.640;-0.752;2023-07-13T06:49:51;100837.94;;;17.00;100.00
38812;BME280;24553;51.640;-0.752;2023-07-13T06:52:17;100844.72;;;17.03;100.00
38812;BME280;24553;51.640;-0.752;2023-07-13T06:54:42;100850.13;;;17.14;100.00
38812;BME280;24553;51.640;-0.752;2023-07-13T06:57:08;100845.41;;;17.28;100.00
38812;BME280;24553;51.640;-0.752;2023-07-13T06:59:33;100852.69;;;17.39;100.00
38812;BME280;24553;51.640;-0.752;2023-07-13T07:01:58;100840.81;;;17.47;100.00
38812;BME280;24553;51.640;-0.752;2023-07-13T07:04:23;100837.94;;;17.60;100.00
38812;BME280;24553;51.640;-0.752;2023-07-13T07:06:49;100837.88;;;17.67;100.00
38812;BME280;24553;51.640;-0.752;2023-07-13T07:09:14;100835.53;;;18.13;100.00
38812;BME280;24553;51.640;-0.752;2023-07-13T07:11:41;100839.75;;;18.44;100.00
38812;BME280;24553;51.640;-0.752;2023-07-13T07:14:07;100838.00;;;18.26;100.00
38812;BME280;24553;51.640;-0.752;2023-07-13T07:16:33;100842.31;;;18.39;100.00
38812;BME280;24553;51.640;-0.752;2023-07-13T07:18:58;100842.66;;;18.54;100.00
38812;BME280;24553;51.640;-0.752;2023-07-13T07:21:23;100837.97;;;18.85;100.00
38812;BME280;24553;51.640;-0.752;2023-07-13T07:23:49;100833.81;;;19.06;100.00
38812;BME280;24553;51.640;-0.752;2023-07-13T07:26:14;100832.00;;;18.71;100.00
38812;BME280;24553;51.640;-0.752;2023-07-13T07:28:40;100836.22;;;18.67;100.00
38812;BME280;24553;51.640;-0.752;2023-07-13T07:31:06;100842.41;;;18.79;100.00
38812;BME280;24553;51.640;-0.752;2023-07-13T07:33:33;100834.91;;;18.81;100.00
38812;BME280;24553;51.640;-0.752;2023-07-13T07:35:58;100839.00;;;18.72;100.00
38812;BME280;24553;51.640;-0.752;2023-07-13T07:38:24;100842.50;;;18.72;100.00
38812;BME280;24553;51.640;-0.752;2023-07-13T07:40:49;100846.84;;;18.62;100.00
38812;BME280;24553;51.640;-0.752;2023-07-13T07:43:14;100856.31;;;18.64;100.00
38812;BME280;24553;51.640;-0.752;2023-07-13T07:45:40;100863.44;;;18.82;100.00
38812;BME280;24553;51.640;-0.752;2023-07-13T07:48:06;100857.69;;;18.90;100.00
38812;BME280;24553;51.640;-0.752;2023-07-13T07:50:32;100861.81;;;19.10;100.00
38812;BME280;24553;51.640;-0.752;2023-07-13T07:52:57;100854.63;;;18.99;100.00
38812;BME280;24553;51.640;-0.752;2023-07-13T07:55:23;100859.50;;;19.13;100.00
38812;BME280;24553;51.640;-0.752;2023-07-13T07:57:51;100858.59;;;19.08;100.00
38812;BME280;24553;51.640;-0.752;2023-07-13T08:00:16;100867.09;;;19.16;100.00
38812;BME280;24553;51.640;-0.752;2023-07-13T08:02:43;100870.59;;;19.17;100.00
38812;BME280;24553;51.640;-0.752;2023-07-13T08:05:09;100869.34;;;19.08;100.00
38812;BME280;24553;51.640;-0.752;2023-07-13T08:07:38;100866.53;;;19.03;100.00
38812;BME280;24553;51.640;-0.752;2023-07-13T08:10:05;100865.59;;;19.09;100.00
38812;BME280;24553;51.640;-0.752;2023-07-13T08:12:34;100864.69;;;18.91;100.00
38812;BME280;24553;51.640;-0.752;2023-07-13T08:14:59;100861.53;;;18.94;100.00
38812;BME280;24553;51.640;-0.752;2023-07-13T08:17:26;100863.50;;;18.99;100.00
38812;BME280;24553;51.640;-0.752;2023-07-13T08:19:51;100861.38;;;19.13;100.00
38812;BME280;24553;51.640;-0.752;2023-07-13T08:22:16;100862.41;;;19.24;100.00
38812;BME280;24553;51.640;-0.752;2023-07-13T08:24:42;100861.38;;;19.42;100.00
38812;BME280;24553;51.640;-0.752;2023-07-13T08:27:08;100854.56;;;19.51;100.00
38812;BME280;24553;51.640;-0.752;2023-07-13T08:29:33;100855.72;;;19.55;100.00
38812;BME280;24553;51.640;-0.752;2023-07-13T08:31:59;100854.22;;;19.47;100.00
38812;BME280;24553;51.640;-0.752;2023-07-13T08:34:24;100856.16;;;19.23;100.00
38812;BME280;24553;51.640;-0.752;2023-07-13T08:36:50;100863.59;;;19.04;100.00
38812;BME280;24553;51.640;-0.752;2023-07-13T08:39:15;100862.78;;;19.04;100.00
38812;BME280;24553;51.640;-0.752;2023-07-13T08:41:40;100854.03;;;19.37;100.00
38812;BME280;24553;51.640;-0.752;2023-07-13T08:44:16;100852.25;;;19.71;100.00
38812;BME280;24553;51.640;-0.752;2023-07-13T08:46:45;100849.50;;;20.00;100.00
38812;BME280;24553;51.640;-0.752;2023-07-13T08:49:13;100842.28;;;20.39;100.00
38812;BME280;24553;51.640;-0.752;2023-07-13T08:52:28;100847.69;;;20.56;100.00
38812;BME280;24553;51.640;-0.752;2023-07-13T08:54:40;100843.69;;;20.59;100.00
38812;BME280;24553;51.640;-0.752;2023-07-13T08:57:13;100852.53;;;20.76;100.00
38812;BME280;24553;51.640;-0.752;2023-07-13T08:59:39;100846.50;;;20.69;100.00
38812;BME280;24553;51.640;-0.752;2023-07-13T09:02:28;100843.22;;;20.84;100.00
38812;BME280;24553;51.640;-0.752;2023-07-13T09:05:02;100853.97;;;21.06;100.00
38812;BME280;24553;51.640;-0.752;2023-07-13T09:10:09;100844.59;;;21.35;100.00
38812;BME280;24553;51.640;-0.752;2023-07-13T09:15:43;100847.19;;;21.25;100.00
38812;BME280;24553;51.640;-0.752;2023-07-13T09:18:33;100850.97;;;21.02;100.00
38812;BME280;24553;51.640;-0.752;2023-07-13T09:21:13;100846.94;;;20.83;100.00
38812;BME280;24553;51.640;-0.752;2023-07-13T09:23:40;100843.25;;;20.67;100.00
38812;BME280;24553;51.640;-0.752;2023-07-13T09:26:20;100841.72;;;20.54;100.00
38812;BME280;24553;51.640;-0.752;2023-07-13T09:29:11;100847.53;;;20.63;100.00
38812;BME280;24553;51.640;-0.752;2023-07-13T09:31:47;100856.66;;;20.62;100.00
38812;BME280;24553;51.640;-0.752;2023-07-13T09:34:16;100851.28;;;20.45;100.00
38812;BME280;24553;51.640;-0.752;2023-07-13T09:36:42;100854.53;;;20.47;100.00
38812;BME280;24553;51.640;-0.752;2023-07-13T09:44:11;100846.75;;;21.61;100.00
38812;BME280;24553;51.640;-0.752;2023-07-13T09:46:38;100846.56;;;21.67;100.00
38812;BME280;24553;51.640;-0.752;2023-07-13T09:49:04;100845.84;;;21.77;100.00
38812;BME280;24553;51.640;-0.752;2023-07-13T09:51:30;100845.31;;;21.80;100.00
38812;BME280;24553;51.640;-0.752;2023-07-13T09:53:55;100844.53;;;21.80;100.00
38812;BME280;24553;51.640;-0.752;2023-07-13T09:56:26;100845.09;;;21.82;100.00
38812;BME280;24553;51.640;-0.752;2023-07-13T09:58:52;100850.81;;;21.90;100.00
38812;BME280;24553;51.640;-0.752;2023-07-13T10:01:35;100854.44;;;22.06;100.00
38812;BME280;24553;51.640;-0.752;2023-07-13T10:04:01;100848.69;;;21.92;100.00
38812;BME280;24553;51.640;-0.752;2023-07-13T10:06:26;100845.59;;;21.51;100.00
38812;BME280;24553;51.640;-0.752;2023-07-13T10:08:54;100848.81;;;21.48;100.00
38812;BME280;24553;51.640;-0.752;2023-07-13T10:11:26;100851.78;;;21.25;100.00
38812;BME280;24553;51.640;-0.752;2023-07-13T10:14:36;100854.63;;;20.91;100.00
38812;BME280;24553;51.640;-0.752;2023-07-13T10:16:44;100851.03;;;20.63;100.00
38812;BME280;24553;51.640;-0.752;2023-07-13T10:19:23;100868.09;;;20.35;100.00
38812;BME280;24553;51.640;-0.752;2023-07-13T10:21:58;100868.09;;;20.18;100.00
38812;BME280;24553;51.640;-0.752;2023-07-13T10:24:27;100870.56;;;20.20;100.00
38812;BME280;24553;51.640;-0.752;2023-07-13T10:27:03;100873.41;;;20.30;100.00
38812;BME280;24553;51.640;-0.752;2023-07-13T10:29:32;100873.16;;;20.65;100.00
38812;BME280;24553;51.640;-0.752;2023-07-13T10:32:00;100871.84;;;21.12;100.00
38812;BME280;24553;51.640;-0.752;2023-07-13T10:34:25;100871.50;;;21.52;100.00
38812;BME280;24553;51.640;-0.752;2023-07-13T10:36:51;100861.31;;;21.60;100.00
38812;BME280;24553;51.640;-0.752;2023-07-13T10:39:19;100865.53;;;21.45;100.00
38812;BME280;24553;51.640;-0.752;2023-07-13T10:41:49;100863.00;;;21.66;100.00
38812;BME280;24553;51.640;-0.752;2023-07-13T10:44:22;100868.25;;;21.77;100.00
38812;BME280;24553;51.640;-0.752;2023-07-13T10:46:55;100862.69;;;21.35;100.00
38812;BME280;24553;51.640;-0.752;2023-07-13T10:49:22;100877.06;;;21.68;100.00
38812;BME280;24553;51.640;-0.752;2023-07-13T10:51:48;100866.75;;;21.38;100.00
38812;BME280;24553;51.640;-0.752;2023-07-13T10:56:44;100860.28;;;21.93;100.00
38812;BME280;24553;51.640;-0.752;2023-07-13T10:59:19;100863.63;;;22.42;100.00
38812;BME280;24553;51.640;-0.752;2023-07-13T11:01:55;100859.53;;;22.77;100.00
38812;BME280;24553;51.640;-0.752;2023-07-13T11:04:22;100864.03;;;22.61;100.00
38812;BME280;24553;51.640;-0.752;2023-07-13T11:06:52;100864.94;;;22.77;100.00
38812;BME280;24553;51.640;-0.752;2023-07-13T11:12:07;100865.13;;;23.18;100.00
38812;BME280;24553;51.640;-0.752;2023-07-13T11:14:42;100862.44;;;23.34;100.00
38812;BME280;24553;51.640;-0.752;2023-07-13T11:22:47;100861.09;;;23.26;100.00
38812;BME280;24553;51.640;-0.752;2023-07-13T11:25:26;100852.34;;;23.03;100.00
38812;BME280;24553;51.640;-0.752;2023-07-13T11:30:46;100843.59;;;24.00;100.00
38812;BME280;24553;51.640;-0.752;2023-07-13T11:33:21;100843.75;;;24.65;100.00
38812;BME280;24553;51.640;-0.752;2023-07-13T11:36:15;100846.38;;;24.91;100.00
38812;BME280;24553;51.640;-0.752;2023-07-13T11:38:50;100839.50;;;24.23;100.00
38812;BME280;24553;51.640;-0.752;2023-07-13T11:41:25;100837.09;;;24.01;100.00
38812;BME280;24553;51.640;-0.752;2023-07-13T11:44:01;100845.19;;;23.65;100.00
38812;BME280;24553;51.640;-0.752;2023-07-13T11:46:28;100836.50;;;23.48;100.00
38812;BME280;24553;51.640;-0.752;2023-07-13T11:48:54;100840.28;;;23.32;100.00
38812;BME280;24553;51.640;-0.752;2023-07-13T11:51:26;100837.53;;;23.16;100.00
38812;BME280;24553;51.640;-0.752;2023-07-13T11:53:54;100848.03;;;23.07;100.00
38812;BME280;24553;51.640;-0.752;2023-07-13T11:56:22;100836.41;;;23.07;100.00
38812;BME280;24553;51.640;-0.752;2023-07-13T11:58:51;100839.94;;;23.18;100.00
38812;BME280;24553;51.640;-0.752;2023-07-13T12:01:23;100835.69;;;23.47;100.00
38812;BME280;24553;51.640;-0.752;2023-07-13T12:03:50;100839.28;;;23.79;100.00
38812;BME280;24553;51.640;-0.752;2023-07-13T12:06:35;100824.03;;;24.29;100.00
38812;BME280;24553;51.640;-0.752;2023-07-13T12:09:12;100830.78;;;24.57;100.00
38812;BME280;24553;51.640;-0.752;2023-07-13T12:11:45;100822.00;;;24.80;100.00
38812;BME280;24553;51.640;-0.752;2023-07-13T12:14:18;100823.06;;;24.90;100.00
38812;BME280;24553;51.640;-0.752;2023-07-13T12:16:46;100822.06;;;24.65;100.00
38812;BME280;24553;51.640;-0.752;2023-07-13T12:19:21;100814.53;;;24.52;100.00
38812;BME280;24553;51.640;-0.752;2023-07-13T12:21:48;100817.59;;;24.04;100.00
38812;BME280;24553;51.640;-0.752;2023-07-13T12:24:19;100824.31;;;23.50;100.00
38812;BME280;24553;51.640;-0.752;2023-07-13T12:26:50;100827.75;;;23.10;100.00
38812;BME280;24553;51.640;-0.752;2023-07-13T12:29:17;100826.88;;;22.94;100.00
38812;BME280;24553;51.640;-0.752;2023-07-13T12:31:45;100831.44;;;22.89;100.00
38812;BME280;24553;51.640;-0.752;2023-07-13T12:34:15;100829.22;;;22.70;100.00
38812;BME280;24553;51.640;-0.752;2023-07-13T12:37:01;100838.66;;;22.25;100.00
38812;BME280;24553;51.640;-0.752;2023-07-13T12:39:35;100829.38;;;22.11;100.00
38812;BME280;24553;51.640;-0.752;2023-07-13T12:42:23;100842.69;;;21.58;100.00
38812;BME280;24553;51.640;-0.752;2023-07-13T12:45:22;100850.47;;;21.05;100.00
38812;BME280;24553;51.640;-0.752;2023-07-13T12:47:50;100850.00;;;21.35;100.00
38812;BME280;24553;51.640;-0.752;2023-07-13T12:50:23;100846.69;;;21.50;100.00
38812;BME280;24553;51.640;-0.752;2023-07-13T12:52:59;100846.00;;;21.65;100.00
38812;BME280;24553;51.640;-0.752;2023-07-13T12:55:26;100843.91;;;21.72;100.00
38812;BME280;24553;51.640;-0.752;2023-07-13T12:57:56;100846.31;;;21.69;100.00
38812;BME280;24553;51.640;-0.752;2023-07-13T13:02:58;100826.91;;;21.72;100.00